Time;durP1;ratioP1;P1;durP2;ratioP2;P2;SDS_P1;SDS_P2;PMS_P1;PMS_P2;Temp;Humidity;BMP_temperature;BMP_pressure;BME280_temperature;BME280_humidity;BME280_pressure;Samples;Min_cycle;Max_cycle;Signal;HPM_P1;HPM_P2
2023/12/22 00:01:38;;;;;;;7.75;1.30;;;;;;;3.93;100.00;99923.13;5008063;28;20555;-74
2023/12/22 00:04:05;;;;;;;9.00;1.60;;;;;;;3.99;100.00;99907.19;5013163;28;20505;-74
2023/12/22 00:06:31;;;;;;;17.08;1.63;;;;;;;4.10;100.00;99933.53;4994040;28;20134;-74
2023/12/22 00:08:56;;;;;;;12.57;1.92;;;;;;;4.19;100.00;99938.81;5007175;28;20033;-75
2023/12/22 00:11:21;;;;;;;6.78;1.33;;;;;;;4.24;100.00;99937.47;5011912;28;20041;-75
2023/12/22 00:13:47;;;;;;;12.05;2.00;;;;;;;4.25;100.00;99903.13;5012009;28;20034;-75
2023/12/22 00:16:12;;;;;;;10.75;1.27;;;;;;;4.28;100.00;99920.84;5010884;28;20054;-74
2023/12/22 00:18:38;;;;;;;13.18;1.40;;;;;;;4.35;100.00;99913.41;5006516;28;20444;-76
2023/12/22 00:21:03;;;;;;;17.30;1.50;;;;;;;4.45;100.00;99913.41;4987543;28;20045;-76
2023/12/22 00:23:29;;;;;;;18.88;2.72;;;;;;;4.41;100.00;99923.13;5012765;28;20040;-75
2023/12/22 00:25:54;;;;;;;9.30;1.23;;;;;;;4.55;100.00;99909.03;5008779;28;21257;-76
2023/12/22 00:28:20;;;;;;;9.25;0.90;;;;;;;4.62;100.00;99911.88;5009207;28;20037;-74
2023/12/22 00:30:45;;;;;;;7.82;1.13;;;;;;;4.70;100.00;99924.00;5008257;28;20038;-76
2023/12/22 00:33:11;;;;;;;11.55;2.50;;;;;;;4.70;100.00;99929.97;5007431;28;20057;-74
2023/12/22 00:35:37;;;;;;;14.43;1.92;;;;;;;4.75;100.00;99935.50;5012904;28;20030;-75
2023/12/22 00:38:03;;;;;;;7.05;1.10;;;;;;;4.78;100.00;99960.88;5006760;28;20448;-74
2023/12/22 00:40:28;;;;;;;9.90;2.15;;;;;;;4.79;100.00;99952.25;5012108;28;20126;-73
2023/12/22 00:42:54;;;;;;;8.57;1.30;;;;;;;4.78;100.00;99973.72;5009789;28;20039;-75
2023/12/22 00:45:19;;;;;;;11.02;1.20;;;;;;;4.70;100.00;99976.19;5009902;28;20080;-75
2023/12/22 00:47:44;;;;;;;7.35;1.20;;;;;;;4.61;100.00;99988.06;5010343;28;20434;-76
2023/12/22 00:50:10;;;;;;;13.60;2.20;;;;;;;4.53;100.00;100000.81;5008730;28;20519;-76
2023/12/22 00:52:35;;;;;;;8.55;1.80;;;;;;;4.58;100.00;99980.66;5015646;28;20030;-76
2023/12/22 00:55:01;;;;;;;16.27;1.70;;;;;;;4.48;100.00;99987.56;5011686;28;20041;-75
2023/12/22 00:57:26;;;;;;;15.82;1.83;;;;;;;4.53;100.00;99994.88;5012013;28;20040;-76
2023/12/22 00:59:52;;;;;;;11.98;1.52;;;;;;;4.59;100.00;99963.50;5012018;28;20030;-75
2023/12/22 01:02:18;;;;;;;6.45;1.20;;;;;;;4.49;100.00;99972.00;5010087;28;20046;-75
2023/12/22 01:04:43;;;;;;;16.23;1.85;;;;;;;4.60;100.00;99968.50;5010945;28;20046;-73
2023/12/22 01:07:10;;;;;;;10.32;1.02;;;;;;;4.52;100.00;99954.72;5009228;28;20029;-75
2023/12/22 01:09:37;;;;;;;11.18;1.13;;;;;;;4.56;100.00;99967.16;5003706;28;20026;-74
2023/12/22 01:12:03;;;;;;;13.77;2.65;;;;;;;4.54;100.00;99979.31;5007863;28;20057;-74
2023/12/22 01:14:29;;;;;;;8.30;1.40;;;;;;;4.56;100.00;99986.88;5012615;28;20052;-74
2023/12/22 01:16:55;;;;;;;12.25;1.35;;;;;;;4.55;100.00;99993.78;5008740;28;20017;-77
2023/12/22 01:19:20;;;;;;;11.27;1.10;;;;;;;4.62;100.00;100001.75;5010284;28;20037;-75
2023/12/22 01:21:46;;;;;;;12.25;2.20;;;;;;;4.52;100.00;99991.50;5012718;28;20030;-75
2023/12/22 01:24:11;;;;;;;9.60;1.73;;;;;;;4.60;100.00;99986.47;5013595;28;20029;-75
2023/12/22 01:26:37;;;;;;;5.95;1.10;;;;;;;4.55;100.00;99960.38;5013327;28;20034;-76
2023/12/22 01:29:02;;;;;;;12.27;1.33;;;;;;;4.51;100.00;99953.91;5013149;28;20114;-75
2023/12/22 01:31:28;;;;;;;10.63;1.90;;;;;;;4.49;100.00;99942.97;5014145;28;20030;-75
2023/12/22 01:33:54;;;;;;;10.35;1.15;;;;;;;4.59;100.00;99953.22;5008003;28;20037;-76
2023/12/22 01:36:19;;;;;;;15.90;2.30;;;;;;;4.57;100.00;99957.69;5007361;28;20096;-77
2023/12/22 01:38:44;;;;;;;17.58;2.65;;;;;;;4.58;100.00;99972.97;5001868;28;20034;-76
2023/12/22 01:41:10;;;;;;;14.57;1.75;;;;;;;4.57;100.00;99976.47;5007576;28;20485;-74
2023/12/22 01:43:35;;;;;;;14.68;1.67;;;;;;;4.56;100.00;99966.31;5005477;28;20553;-75
2023/12/22 01:46:01;;;;;;;15.98;1.40;;;;;;;4.45;100.00;99967.31;5007506;28;20394;-74
2023/12/22 01:48:28;;;;;;;13.75;1.45;;;;;;;4.49;100.00;99956.63;5012391;28;20037;-73
2023/12/22 01:50:55;;;;;;;17.30;2.35;;;;;;;4.44;100.00;99966.47;5007701;28;20113;-74
2023/12/22 01:53:20;;;;;;;16.83;1.80;;;;;;;4.46;100.00;99976.63;5016954;28;20388;-74
2023/12/22 01:55:50;;;;;;;11.68;1.52;;;;;;;4.55;100.00;99982.69;5004428;28;20081;-74
2023/12/22 01:58:18;;;;;;;12.05;1.70;;;;;;;4.51;100.00;99987.28;5007974;28;20117;-74
2023/12/22 02:00:44;;;;;;;15.18;1.80;;;;;;;4.44;100.00;99997.28;5011336;28;20038;-74
2023/12/22 02:03:10;;;;;;;14.35;1.48;;;;;;;4.48;100.00;99997.81;5010578;28;20033;-73
2023/12/22 02:05:35;;;;;;;12.00;1.92;;;;;;;4.48;100.00;100002.97;5011163;28;20037;-73
2023/12/22 02:08:01;;;;;;;15.98;1.70;;;;;;;4.48;100.00;100020.94;5012519;28;20128;-73
2023/12/22 02:10:26;;;;;;;13.60;2.20;;;;;;;4.49;100.00;100020.00;5015083;28;20038;-73
2023/12/22 02:12:52;;;;;;;12.82;1.88;;;;;;;4.56;100.00;100033.09;4993086;28;20022;-73
2023/12/22 02:15:17;;;;;;;8.82;1.63;;;;;;;4.65;100.00;100027.13;5011567;28;20038;-73
2023/12/22 02:17:58;;;;;;;19.88;2.90;;;;;;;4.69;100.00;100020.81;5012093;28;20038;-74
2023/12/22 02:20:24;;;;;;;9.15;1.50;;;;;;;4.59;100.00;100014.84;5016251;28;20037;-74
2023/12/22 02:22:53;;;;;;;16.17;1.73;;;;;;;4.64;100.00;100013.50;5020722;28;20029;-73
2023/12/22 02:25:19;;;;;;;20.80;2.08;;;;;;;4.59;100.00;100002.00;5005956;28;20042;-74
2023/12/22 02:28:09;;;;;;;21.63;1.90;;;;;;;4.65;100.00;100010.00;5013363;28;20507;-74
2023/12/22 02:30:44;;;;;;;25.52;2.50;;;;;;;4.70;100.00;100013.91;5001634;28;20058;-75
2023/12/22 02:33:12;;;;;;;11.25;1.83;;;;;;;4.73;100.00;100006.75;5011490;28;20042;-73
2023/12/22 02:35:41;;;;;;;11.57;2.50;;;;;;;4.58;100.00;99997.84;5006872;28;20038;-73
2023/12/22 02:38:08;;;;;;;13.43;2.50;;;;;;;4.63;100.00;100013.63;5015277;28;20497;-74
2023/12/22 02:40:34;;;;;;;11.30;1.88;;;;;;;4.58;100.00;100010.69;5006074;28;20490;-73
2023/12/22 02:43:01;;;;;;;17.58;2.25;;;;;;;4.64;100.00;100002.41;5007132;28;20082;-73
2023/12/22 02:45:27;;;;;;;13.48;1.73;;;;;;;4.67;100.00;100014.97;5018702;28;20496;-73
2023/12/22 02:47:52;;;;;;;17.30;2.42;;;;;;;4.63;100.00;100001.63;5006158;28;20041;-73
2023/12/22 02:50:18;;;;;;;9.70;1.30;;;;;;;4.51;100.00;99987.28;5012174;28;20385;-73
2023/12/22 02:52:43;;;;;;;19.77;3.38;;;;;;;4.51;100.00;99971.09;5010188;28;20030;-73
2023/12/22 02:55:09;;;;;;;20.10;2.15;;;;;;;4.42;100.00;99978.63;5005474;28;20680;-73
2023/12/22 02:57:35;;;;;;;15.60;2.63;;;;;;;4.41;100.00;99989.06;5010457;28;20030;-73
2023/12/22 03:00:00;;;;;;;12.85;2.20;;;;;;;4.34;100.00;100000.81;4995037;28;20404;-73
2023/12/22 03:02:26;;;;;;;13.55;2.42;;;;;;;4.52;100.00;99976.09;5012741;28;20037;-73
2023/12/22 03:04:51;;;;;;;27.45;2.95;;;;;;;4.41;100.00;99982.16;5011137;28;20034;-73
2023/12/22 03:07:17;;;;;;;20.98;2.55;;;;;;;4.40;100.00;99979.72;4990687;28;20034;-73
2023/12/22 03:09:43;;;;;;;14.82;2.45;;;;;;;4.40;100.00;99970.25;5016718;28;20042;-73
2023/12/22 03:12:09;;;;;;;20.73;3.55;;;;;;;4.42;100.00;99968.38;5016231;28;20073;-73
2023/12/22 03:14:35;;;;;;;16.13;2.92;;;;;;;4.32;100.00;99982.97;5013219;28;20042;-73
2023/12/22 03:17:01;;;;;;;18.63;3.60;;;;;;;4.41;100.00;99974.47;5007782;28;20105;-73
2023/12/22 03:19:27;;;;;;;25.08;2.33;;;;;;;4.41;100.00;99983.94;5011692;28;20049;-73
2023/12/22 03:21:52;;;;;;;20.55;2.70;;;;;;;4.57;100.00;99968.75;5011210;28;20034;-73
2023/12/22 03:24:22;;;;;;;29.98;2.97;;;;;;;4.57;100.00;99971.34;5006522;28;20048;-73
2023/12/22 03:26:47;;;;;;;19.58;2.38;;;;;;;4.66;100.00;99969.72;5009850;28;20100;-72
2023/12/22 03:29:13;;;;;;;23.38;3.08;;;;;;;4.73;100.00;99962.25;5010158;28;20029;-73
2023/12/22 03:31:38;;;;;;;25.67;5.25;;;;;;;4.67;100.00;99989.28;5016261;28;20034;-73
2023/12/22 03:34:04;;;;;;;19.98;3.13;;;;;;;4.73;100.00;99986.19;5013973;28;20045;-73
2023/12/22 03:36:29;;;;;;;18.35;2.50;;;;;;;4.81;100.00;99978.59;5008698;28;20045;-73
2023/12/22 03:38:55;;;;;;;18.05;2.80;;;;;;;4.77;100.00;99973.88;5013527;28;20040;-73
2023/12/22 03:41:20;;;;;;;24.05;3.22;;;;;;;4.95;100.00;99976.53;5011091;28;20111;-73
2023/12/22 03:43:45;;;;;;;19.88;3.25;;;;;;;4.84;100.00;99988.59;5017237;28;20485;-73
2023/12/22 03:46:11;;;;;;;52.90;13.98;;;;;;;4.92;100.00;99971.69;5013387;28;20046;-73
2023/12/22 03:48:36;;;;;;;55.67;15.27;;;;;;;4.90;100.00;99958.16;5010777;28;20030;-73
2023/12/22 03:51:02;;;;;;;38.63;12.30;;;;;;;5.06;100.00;99977.16;5014308;28;20237;-73
2023/12/22 03:53:27;;;;;;;31.20;4.63;;;;;;;5.00;100.00;99984.66;5006914;28;20057;-73
2023/12/22 03:55:53;;;;;;;17.77;2.80;;;;;;;5.05;100.00;99969.63;5009494;28;20522;-74
2023/12/22 03:58:18;;;;;;;20.00;3.17;;;;;;;5.15;100.00;99959.31;5008410;28;20049;-73
2023/12/22 04:00:43;;;;;;;21.95;11.10;;;;;;;5.15;100.00;99962.69;5008839;28;20496;-73
2023/12/22 04:03:09;;;;;;;23.00;8.25;;;;;;;5.08;100.00;99961.63;5012925;28;20401;-73
2023/12/22 04:05:34;;;;;;;51.65;23.30;;;;;;;5.07;100.00;99985.72;5013834;28;20029;-72
2023/12/22 04:08:00;;;;;;;86.93;30.13;;;;;;;5.14;100.00;99989.34;5009206;28;20442;-73
2023/12/22 04:10:25;;;;;;;113.00;41.00;;;;;;;5.15;100.00;99977.28;5008144;28;20049;-72
2023/12/22 04:12:51;;;;;;;55.75;16.23;;;;;;;5.15;100.00;99988.38;5010833;28;20038;-73
2023/12/22 04:15:16;;;;;;;23.85;5.30;;;;;;;5.11;100.00;99989.63;5013034;28;20026;-73
2023/12/22 04:17:41;;;;;;;21.42;4.50;;;;;;;5.10;100.00;99974.34;4992622;28;20404;-73
2023/12/22 04:20:07;;;;;;;20.05;2.33;;;;;;;5.11;100.00;99987.03;5009072;28;20108;-73
2023/12/22 04:22:33;;;;;;;12.30;2.38;;;;;;;5.13;100.00;99998.00;5013825;28;20037;-73
2023/12/22 04:24:58;;;;;;;19.25;3.38;;;;;;;5.17;100.00;99991.63;5012224;28;20096;-73
2023/12/22 04:27:24;;;;;;;18.38;3.75;;;;;;;5.19;100.00;99982.00;5010253;28;20041;-73
2023/12/22 04:29:49;;;;;;;22.23;3.42;;;;;;;5.25;100.00;99989.19;5009928;28;20034;-73
2023/12/22 04:32:15;;;;;;;20.40;2.22;;;;;;;5.17;100.00;99981.34;5008012;28;20030;-72
2023/12/22 04:34:41;;;;;;;24.88;3.20;;;;;;;5.25;100.00;99989.19;5007371;28;20041;-73
2023/12/22 04:37:06;;;;;;;23.38;2.80;;;;;;;5.32;100.00;99988.59;5011045;28;20044;-73
2023/12/22 04:39:31;;;;;;;24.08;3.75;;;;;;;5.26;100.00;99995.13;5011638;28;20055;-73
2023/12/22 04:41:57;;;;;;;28.30;3.53;;;;;;;5.26;100.00;99995.91;5011949;28;20038;-73
2023/12/22 04:44:23;;;;;;;25.67;2.95;;;;;;;5.34;100.00;100000.34;5011931;28;20408;-72
2023/12/22 04:46:49;;;;;;;27.00;2.45;;;;;;;5.29;100.00;99987.09;5013080;28;20037;-74
2023/12/22 04:49:14;;;;;;;22.73;3.63;;;;;;;5.43;100.00;100001.28;4996051;28;20088;-72
2023/12/22 04:51:40;;;;;;;15.27;3.65;;;;;;;5.40;100.00;100006.69;5010380;28;20060;-72
2023/12/22 04:54:05;;;;;;;22.17;3.95;;;;;;;5.54;100.00;100008.81;5014940;28;20030;-73
2023/12/22 04:56:30;;;;;;;21.48;2.10;;;;;;;5.57;100.00;99995.63;5012182;28;20040;-73
2023/12/22 04:58:56;;;;;;;27.63;2.85;;;;;;;5.58;100.00;100012.72;5013269;28;20037;-72
2023/12/22 05:01:21;;;;;;;35.25;5.03;;;;;;;5.65;100.00;100005.22;5016796;28;20060;-72
2023/12/22 05:03:47;;;;;;;20.00;2.58;;;;;;;5.66;100.00;99993.97;5007672;28;20045;-73
2023/12/22 05:06:12;;;;;;;22.02;2.22;;;;;;;5.65;100.00;100003.47;5012564;28;20034;-73
2023/12/22 05:08:38;;;;;;;18.45;3.38;;;;;;;5.72;100.00;100013.19;5017253;28;20044;-73
2023/12/22 05:11:03;;;;;;;15.57;2.85;;;;;;;5.77;100.00;100003.28;5009890;28;20099;-73
2023/12/22 05:13:29;;;;;;;22.05;2.72;;;;;;;5.77;100.00;100011.78;5011440;28;20033;-73
2023/12/22 05:15:54;;;;;;;22.63;2.58;;;;;;;5.82;100.00;100012.19;4992443;28;20030;-73
2023/12/22 05:18:20;;;;;;;21.42;4.20;;;;;;;5.84;100.00;100025.72;4996085;28;20463;-73
2023/12/22 05:20:45;;;;;;;26.58;2.78;;;;;;;5.90;100.00;100026.91;5009014;28;20456;-74
2023/12/22 05:23:11;;;;;;;25.70;3.33;;;;;;;6.04;100.00;100031.56;5013402;28;20088;-73
2023/12/22 05:25:37;;;;;;;19.70;2.75;;;;;;;5.99;100.00;100032.94;5011368;28;20648;-73
2023/12/22 05:28:02;;;;;;;22.02;2.25;;;;;;;6.07;100.00;100033.06;5011372;28;21152;-74
2023/12/22 05:30:28;;;;;;;16.73;2.10;;;;;;;6.10;100.00;100037.91;5014331;28;20117;-73
2023/12/22 05:32:54;;;;;;;22.17;2.60;;;;;;;6.16;100.00;100027.03;4994947;28;20034;-73
2023/12/22 05:35:20;;;;;;;21.63;3.38;;;;;;;6.18;100.00;100043.16;5007709;28;20049;-73
2023/12/22 05:37:45;;;;;;;26.42;3.90;;;;;;;6.21;100.00;100035.13;5008278;28;20029;-73
2023/12/22 05:40:11;;;;;;;22.42;3.20;;;;;;;6.15;100.00;100032.34;5014027;28;20033;-73
2023/12/22 05:42:37;;;;;;;18.35;2.30;;;;;;;6.23;100.00;100043.53;5008436;28;20365;-73
2023/12/22 05:45:03;;;;;;;18.65;3.05;;;;;;;6.24;100.00;100054.63;5011122;28;20034;-72
2023/12/22 05:47:29;;;;;;;23.88;3.42;;;;;;;6.16;100.00;100036.50;5008469;28;20401;-72
2023/12/22 05:49:54;;;;;;;20.88;3.05;;;;;;;6.24;100.00;100044.34;5012621;28;20040;-73
2023/12/22 05:52:19;;;;;;;20.00;3.10;;;;;;;6.30;100.00;100037.78;4994350;28;20041;-72
2023/12/22 05:54:45;;;;;;;22.48;2.10;;;;;;;6.24;100.00;100036.59;5010123;28;20030;-73
2023/12/22 05:57:10;;;;;;;31.38;3.97;;;;;;;6.26;100.00;100047.56;5010035;28;20033;-73
2023/12/22 05:59:36;;;;;;;26.90;2.67;;;;;;;6.17;100.00;100033.78;5021311;28;20057;-73
2023/12/22 06:02:02;;;;;;;26.85;3.00;;;;;;;6.20;100.00;100036.09;5012436;28;20030;-72
2023/12/22 06:04:28;;;;;;;23.90;3.35;;;;;;;6.27;100.00;100041.44;5011331;28;20547;-72
2023/12/22 06:06:53;;;;;;;22.85;3.30;;;;;;;6.30;100.00;100037.78;5008851;28;20033;-72
2023/12/22 06:09:20;;;;;;;20.25;2.40;;;;;;;6.31;100.00;100029.09;5009461;28;20425;-72
2023/12/22 06:11:46;;;;;;;20.20;3.05;;;;;;;6.35;100.00;100041.53;5017082;28;20057;-73
2023/12/22 06:14:11;;;;;;;26.65;3.63;;;;;;;6.31;100.00;100040.22;4996850;28;21263;-73
2023/12/22 06:16:37;;;;;;;20.42;3.55;;;;;;;6.26;100.00;100036.47;5011425;28;20026;-72
2023/12/22 06:19:02;;;;;;;19.65;2.38;;;;;;;6.33;100.00;100033.16;5009627;28;20037;-73
2023/12/22 06:21:28;;;;;;;25.95;2.45;;;;;;;6.37;100.00;100037.06;5010009;28;20463;-73
2023/12/22 06:23:54;;;;;;;19.35;2.50;;;;;;;6.51;100.00;100055.53;5007069;28;20030;-72
2023/12/22 06:26:19;;;;;;;21.55;3.50;;;;;;;6.41;100.00;100058.16;5014924;28;20042;-72
2023/12/22 06:28:45;;;;;;;14.48;2.50;;;;;;;6.44;100.00;100063.00;5014658;28;20041;-72
2023/12/22 06:31:18;;;;;;;22.20;2.90;;;;;;;6.46;100.00;100068.84;5015498;28;20140;-73
2023/12/22 06:33:44;;;;;;;21.60;3.20;;;;;;;6.47;100.00;100055.00;5006315;28;20064;-73
2023/12/22 06:36:24;;;;;;;12.13;1.70;;;;;;;6.44;100.00;100060.44;5002653;28;20119;-73
2023/12/22 06:38:53;;;;;;;14.57;1.67;;;;;;;6.38;100.00;100053.31;5012792;28;20041;-73
2023/12/22 06:41:23;;;;;;;18.50;2.00;;;;;;;6.39;100.00;100052.34;5020371;28;20038;-73
2023/12/22 06:43:49;;;;;;;12.57;1.90;;;;;;;6.25;100.00;100056.22;5012307;28;20033;-73
2023/12/22 06:46:27;;;;;;;15.93;1.85;;;;;;;6.27;100.00;100074.91;5010429;28;20048;-74
2023/12/22 06:48:54;;;;;;;17.88;1.90;;;;;;;6.29;100.00;100067.06;4992505;28;20026;-74
2023/12/22 06:51:25;;;;;;;15.05;2.35;;;;;;;6.21;100.00;100071.16;5006081;28;20037;-73
2023/12/22 06:53:51;;;;;;;17.98;2.00;;;;;;;6.13;100.00;100086.53;5018159;28;20116;-73
2023/12/22 06:56:25;;;;;;;13.82;1.90;;;;;;;6.10;100.00;100080.84;5011606;28;20517;-73
2023/12/22 06:58:52;;;;;;;20.05;2.38;;;;;;;6.16;100.00;100083.69;5012055;28;20030;-73
2023/12/22 07:01:22;;;;;;;22.17;3.08;;;;;;;6.21;100.00;100072.94;5007683;28;20048;-73
2023/12/22 07:03:48;;;;;;;20.60;3.00;;;;;;;6.14;100.00;100071.88;5009302;28;20449;-73
2023/12/22 07:06:15;;;;;;;20.73;3.47;;;;;;;6.14;100.00;100061.59;5010023;28;20088;-75
2023/12/22 07:08:41;;;;;;;23.83;2.63;;;;;;;6.13;100.00;100049.69;5010432;28;20033;-74
2023/12/22 07:11:07;;;;;;;18.17;1.98;;;;;;;6.14;100.00;100070.16;5009226;28;20124;-73
2023/12/22 07:13:32;;;;;;;10.02;2.00;;;;;;;6.00;100.00;100068.03;5012128;28;20033;-76
2023/12/22 07:15:58;;;;;;;14.07;2.35;;;;;;;5.90;100.00;100051.81;5008309;28;20045;-75
2023/12/22 07:18:25;;;;;;;13.73;1.77;;;;;;;5.89;100.00;100039.91;5013020;28;20029;-76
2023/12/22 07:20:50;;;;;;;12.63;3.08;;;;;;;5.86;100.00;100051.31;5006061;28;20144;-76
2023/12/22 07:23:16;;;;;;;15.30;3.33;;;;;;;5.82;100.00;100073.94;5009060;28;20247;-76
2023/12/22 07:25:41;;;;;;;21.25;2.17;;;;;;;5.76;100.00;100050.53;5010932;28;20037;-74
2023/12/22 07:28:07;;;;;;;20.88;3.67;;;;;;;5.72;100.00;100052.56;5007614;28;20029;-75
2023/12/22 07:30:32;;;;;;;11.88;1.48;;;;;;;5.63;100.00;100054.25;5009411;28;20041;-76
2023/12/22 07:32:58;;;;;;;16.77;2.38;;;;;;;5.59;100.00;100049.50;4997943;28;20038;-75
2023/12/22 07:35:23;;;;;;;18.55;1.95;;;;;;;5.62;100.00;100054.38;5004853;28;20081;-74
2023/12/22 07:37:48;;;;;;;25.33;4.38;;;;;;;5.71;100.00;100073.28;5014217;28;20037;-73
2023/12/22 07:40:14;;;;;;;21.80;4.05;;;;;;;5.69;100.00;100063.16;4992802;28;20040;-74
2023/12/22 07:42:39;;;;;;;29.77;2.92;;;;;;;5.70;100.00;100040.81;5009486;28;20037;-74
2023/12/22 07:45:05;;;;;;;24.00;3.90;;;;;;;5.73;100.00;100040.53;5000045;28;20038;-73
2023/12/22 07:47:32;;;;;;;36.08;5.38;;;;;;;5.88;100.00;100048.56;4987839;28;20033;-73
2023/12/22 07:49:57;;;;;;;32.47;4.95;;;;;;;5.87;100.00;100045.19;5007015;28;20034;-74
2023/12/22 07:52:22;;;;;;;29.52;3.72;;;;;;;5.95;100.00;100054.75;5010340;28;20072;-74
2023/12/22 07:54:48;;;;;;;35.58;4.65;;;;;;;6.03;100.00;100058.28;5014073;28;20038;-74
2023/12/22 07:57:13;;;;;;;30.42;4.40;;;;;;;6.00;100.00;100061.13;5007498;28;20026;-74
2023/12/22 07:59:39;;;;;;;61.88;5.78;;;;;;;6.01;100.00;100067.91;5008314;28;20037;-73
2023/12/22 08:02:04;;;;;;;37.58;4.95;;;;;;;6.18;100.00;100055.22;5009487;28;20045;-74
2023/12/22 08:04:30;;;;;;;31.40;4.53;;;;;;;6.12;100.00;100058.34;5008660;28;20026;-73
2023/12/22 08:06:55;;;;;;;31.92;3.78;;;;;;;6.21;100.00;100052.34;5007309;28;20045;-73
2023/12/22 08:09:22;;;;;;;44.92;6.80;;;;;;;6.22;100.00;100051.41;5005959;28;20026;-73
2023/12/22 08:11:52;;;;;;;44.35;5.93;;;;;;;6.25;100.00;100048.50;5006659;28;20092;-73
2023/12/22 08:14:18;;;;;;;47.47;4.97;;;;;;;6.35;100.00;100041.53;5010416;28;20084;-73
2023/12/22 08:16:44;;;;;;;37.95;4.80;;;;;;;6.26;100.00;100052.72;5013566;28;20034;-73
2023/12/22 08:19:10;;;;;;;47.42;6.50;;;;;;;6.36;100.00;100050.88;5015957;28;20041;-73
2023/12/22 08:21:35;;;;;;;45.63;4.95;;;;;;;6.46;100.00;100044.84;4994018;28;20077;-72
2023/12/22 08:24:01;;;;;;;34.47;4.70;;;;;;;6.34;100.00;100039.91;5015342;28;20064;-73
2023/12/22 08:26:26;;;;;;;50.67;5.05;;;;;;;6.41;100.00;100033.22;5011998;28;20037;-73
2023/12/22 08:28:52;;;;;;;40.42;5.95;;;;;;;6.57;100.00;100042.88;5015971;28;20152;-73
2023/12/22 08:31:17;;;;;;;36.65;5.13;;;;;;;6.50;100.00;100044.41;5013444;28;20042;-73
2023/12/22 08:33:45;;;;;;;29.20;4.60;;;;;;;6.60;100.00;100052.84;5010582;28;20037;-73
2023/12/22 08:36:10;;;;;;;42.60;5.53;;;;;;;6.63;100.00;100060.31;5013775;28;20126;-73
2023/12/22 08:38:40;;;;;;;34.00;5.50;;;;;;;6.65;100.00;100047.28;5011824;28;20522;-72
2023/12/22 08:41:08;;;;;;;35.47;4.38;;;;;;;6.72;100.00;100045.69;5013548;28;20049;-73
2023/12/22 08:43:34;;;;;;;37.75;4.75;;;;;;;6.81;100.00;100034.50;5020471;28;20083;-73
2023/12/22 08:46:00;;;;;;;32.20;5.07;;;;;;;6.74;100.00;100036.09;5014674;28;20037;-73
2023/12/22 08:48:25;;;;;;;43.65;5.20;;;;;;;6.79;100.00;100033.03;5011507;28;20042;-73
2023/12/22 08:50:51;;;;;;;43.20;6.28;;;;;;;6.87;100.00;100040.81;5013567;28;20034;-73
2023/12/22 08:53:16;;;;;;;37.45;5.20;;;;;;;6.90;100.00;100025.06;5012179;28;20042;-72
2023/12/22 08:55:42;;;;;;;34.78;4.57;;;;;;;6.94;100.00;100020.44;5014202;28;20049;-72
2023/12/22 08:58:07;;;;;;;38.17;4.97;;;;;;;7.00;100.00;100015.47;5029796;28;20040;-73
2023/12/22 09:00:33;;;;;;;33.35;4.43;;;;;;;7.00;100.00;100009.50;5012274;28;20057;-72
2023/12/22 09:02:58;;;;;;;38.17;5.40;;;;;;;7.00;100.00;100012.88;5009769;28;21026;-73
2023/12/22 09:05:23;;;;;;;40.85;4.13;;;;;;;6.99;100.00;100011.28;5005990;28;20378;-73
2023/12/22 09:07:49;;;;;;;31.38;3.90;;;;;;;6.96;100.00;100008.19;5015848;28;20030;-72
2023/12/22 09:10:14;;;;;;;38.72;4.60;;;;;;;7.09;100.00;100006.00;5020268;28;20033;-72
2023/12/22 09:12:40;;;;;;;40.28;4.82;;;;;;;7.05;100.00;100001.31;4991666;28;20029;-73
2023/12/22 09:15:05;;;;;;;35.15;5.72;;;;;;;7.05;100.00;100001.31;5011901;28;20496;-73
2023/12/22 09:17:32;;;;;;;34.35;4.38;;;;;;;7.19;100.00;99996.38;5013489;28;21496;-72
2023/12/22 09:19:58;;;;;;;32.78;4.10;;;;;;;7.18;100.00;100007.69;5013030;28;20057;-72
2023/12/22 09:22:23;;;;;;;36.67;5.07;;;;;;;7.24;100.00;100002.88;5009323;28;20041;-72
2023/12/22 09:24:48;;;;;;;30.40;4.57;;;;;;;7.25;100.00;100009.63;5011355;28;20038;-72
2023/12/22 09:27:14;;;;;;;21.95;3.88;;;;;;;7.20;100.00;100005.75;5009073;28;20378;-72
2023/12/22 09:29:39;;;;;;;30.13;3.70;;;;;;;7.28;100.00;99991.28;5014242;28;20042;-72
2023/12/22 09:32:05;;;;;;;34.17;4.15;;;;;;;7.23;100.00;100007.22;5009416;28;20056;-73
2023/12/22 09:34:30;;;;;;;27.98;4.57;;;;;;;7.17;100.00;100003.47;5010142;28;20029;-73
2023/12/22 09:36:56;;;;;;;35.35;3.85;;;;;;;7.28;100.00;99992.09;5013980;28;20022;-73
2023/12/22 09:39:22;;;;;;;29.42;4.05;;;;;;;7.31;100.00;99986.63;5012870;28;20036;-72
2023/12/22 09:41:50;;;;;;;47.58;4.97;;;;;;;7.34;100.00;99994.03;5016552;28;20566;-72
2023/12/22 09:44:23;;;;;;;33.55;3.80;;;;;;;7.40;100.00;99987.47;5012188;28;20144;-72
2023/12/22 09:46:50;;;;;;;;;;;;;;;7.33;100.00;99996.81;5008849;28;20374;-72
2023/12/22 09:49:18;;;;;;;24.52;3.80;;;;;;;7.35;100.00;99984.56;5013415;28;19956;-72
2023/12/22 09:51:44;;;;;;;34.13;4.18;;;;;;;7.36;100.00;99984.38;5011142;28;20038;-72
2023/12/22 09:54:10;;;;;;;27.70;4.13;;;;;;;7.32;100.00;99995.97;5012525;28;20116;-72
2023/12/22 09:56:41;;;;;;;25.10;3.25;;;;;;;7.30;100.00;99984.22;4994999;28;20382;-72
2023/12/22 09:59:13;;;;;;;18.95;3.25;;;;;;;7.30;100.00;99994.53;5016201;28;20033;-72
2023/12/22 10:01:45;;;;;;;34.28;4.18;;;;;;;7.31;100.00;99988.38;5011605;28;20571;-73
2023/12/22 10:04:12;;;;;;;24.77;4.35;;;;;;;7.32;100.00;99988.22;5007546;28;20044;-73
2023/12/22 10:06:37;;;;;;;18.40;3.03;;;;;;;7.45;100.00;99994.75;5010011;28;20559;-72
2023/12/22 10:09:06;;;;;;;16.80;2.50;;;;;;;7.46;100.00;99984.28;5014623;28;20049;-72
2023/12/22 10:11:33;;;;;;;17.67;2.42;;;;;;;7.47;100.00;99975.56;5018104;28;20037;-72
2023/12/22 10:14:00;;;;;;;13.10;1.90;;;;;;;7.62;100.00;99975.78;5008209;28;20423;-72
2023/12/22 10:16:25;;;;;;;13.43;1.88;;;;;;;7.62;100.00;99980.13;5007324;28;20033;-72
2023/12/22 10:18:51;;;;;;;11.23;1.65;;;;;;;7.64;100.00;99970.47;5009228;28;20048;-72
2023/12/22 10:21:18;;;;;;;11.57;1.95;;;;;;;7.73;100.00;99972.09;5009065;28;20060;-72
2023/12/22 10:23:43;;;;;;;13.10;1.80;;;;;;;7.72;100.00;99967.91;5012684;28;20044;-72
2023/12/22 10:26:12;;;;;;;14.02;2.78;;;;;;;7.70;100.00;99965.47;5011987;28;20038;-72
2023/12/22 10:28:38;;;;;;;15.07;2.20;;;;;;;7.63;100.00;99961.09;5003135;28;20053;-72
2023/12/22 10:31:07;;;;;;;16.10;3.50;;;;;;;7.68;100.00;99971.75;5010248;28;22091;-72
2023/12/22 10:33:33;;;;;;;18.38;2.28;;;;;;;7.68;100.00;99962.25;5008762;28;20488;-73
2023/12/22 10:35:59;;;;;;;9.00;2.40;;;;;;;7.67;100.00;99975.31;5009355;28;20041;-74
2023/12/22 10:38:27;;;;;;;10.32;2.42;;;;;;;7.63;100.00;99953.34;5018194;28;20084;-72
2023/12/22 10:40:52;;;;;;;11.48;3.00;;;;;;;7.68;100.00;99953.69;5005578;28;20049;-72
2023/12/22 10:43:18;;;;;;;12.43;2.15;;;;;;;7.71;100.00;99950.81;5008009;28;20068;-72
2023/12/22 10:45:44;;;;;;;16.15;2.70;;;;;;;7.60;100.00;99960.44;5008874;28;20052;-72
2023/12/22 10:48:10;;;;;;;16.58;2.55;;;;;;;7.71;100.00;99954.19;5012133;28;20037;-73
2023/12/22 10:50:35;;;;;;;13.52;2.33;;;;;;;7.69;100.00;99960.50;5008672;28;20048;-72
2023/12/22 10:53:01;;;;;;;5.70;1.77;;;;;;;7.76;100.00;99957.13;5014018;28;20485;-72
2023/12/22 10:55:26;;;;;;;5.45;1.65;;;;;;;7.86;100.00;99969.88;5013116;28;20512;-74
2023/12/22 10:57:53;;;;;;;9.50;1.88;;;;;;;7.91;100.00;99969.38;5010443;28;20637;-72
2023/12/22 11:00:21;;;;;;;8.07;1.58;;;;;;;7.89;100.00;99954.09;5005654;28;20040;-72
2023/12/22 11:02:50;;;;;;;11.15;2.28;;;;;;;7.91;100.00;99947.00;5008018;28;20042;-72
2023/12/22 11:05:18;;;;;;;7.60;2.08;;;;;;;7.93;100.00;99954.53;5011470;28;20050;-72
2023/12/22 11:07:48;;;;;;;11.02;1.80;;;;;;;7.97;100.00;99945.53;5015293;28;20034;-72
2023/12/22 11:10:19;;;;;;;12.63;1.85;;;;;;;7.96;100.00;99951.66;5007491;28;20132;-73
2023/12/22 11:12:46;;;;;;;6.85;1.38;;;;;;;8.13;100.00;99942.16;5006627;28;20377;-72
2023/12/22 11:15:13;;;;;;;3.85;1.25;;;;;;;8.23;100.00;99942.00;5011880;28;20056;-74
2023/12/22 11:17:40;;;;;;;7.68;1.15;;;;;;;8.20;100.00;99956.03;5011340;28;20116;-72